x

Buoy E01 - Central Maine Shelf (44032) Wave Buoy

12:04 - Mon 24th Apr 2017 All times are EDT. -4 hours from GMT.

  • Sig Wave height 4.9ft
  • Peak Period 11s
  • Wind
    18mph, 22mph gusts
  • Sea Temp 42°f
  • Aire Temp 44°f
  • Sea Pressure 1017.1mb
  • Buoy E01 - Central Maine Shelf
  • Buoy E01 - Central Maine Shelf

More Historic Weather Station data

Upgrade to MSW Pro to gain access to the past 30 days of data for over 8000 Wavebouys and Weather Stations around the globe.

Join Pro

Comparision Forecast

View Surf forecast
   
lun 04/24 12:04 5ft 11s 18 22 mph 1017.1mb 42f 44f
dom 04/23 11:04 3ft 5s 18 20 mph 1017.3mb 42f 44f
10:04 5ft 11s 16 18 mph 1017.6mb 42f 43f
9:04 4ft 8s 16 20 mph 1017.3mb 42f 43f
8:04  -   -  16 18 mph 1016.9mb 42f 43f
7:04 4.5ft 8s 13 18 mph 1016.8mb 42f 43f
6:04 4.5ft 8s 13 16 mph 1016.5mb 42f 43f
5:04 5ft 11s 16 18 mph 1016.6mb 42f 43f
4:04 4.5ft 8s 16 18 mph 1016.8mb 42f 43f
3:04 5ft 11s 13
mph
1017.3mb 42f 43f
2:04  -   -  11 13 mph 1017.5mb 42f 42f
1:04 4.5ft 11s 9 11 mph 1017.5mb 42f 42f
12:04 4.5ft 11s 9 11 mph 1017.9mb 42f 42f
11:04 4ft 11s 7 9 mph 1018.2mb 42f 41f
10:04 4.5ft 11s 2
mph
1017.9mb 42f 40f
9:04 4ft 8s 4 7 mph 1017.5mb 42f 39f
8:04 4ft 11s 7
mph
1016.9mb 41f 39f
7:04 4.5ft 8s 7 9 mph 1015.9mb 41f 39f
6:04 4.5ft 8s 11
mph
1015.4mb 41f 38f
5:04 4.5ft 8s 11 13 mph 1014.8mb 41f 39f
4:04 4.5ft 8s 11 13 mph 1014.7mb 41f 39f
3:04 5.5ft 8s 9 11 mph 1014.4mb 41f 39f
2:04 6ft 8s 11 13 mph 1014.3mb 41f 39f
sáb 04/22 11:04 7.5ft 8s 9
mph
1014.2mb 41f 38f
10:04 6ft 8s 9 11 mph 1014.3mb 41f 38f
9:04 7ft 8s 13 16 mph 1014.1mb 42f 38f
8:04 6.5ft 8s 13 16 mph 1014.1mb 42f 38f
7:04 7ft 8s 16 20 mph 1013.8mb 42f 38f
6:04 7ft 8s 16 20 mph 1013.9mb 42f 38f
5:04 7ft 8s 16 18 mph 1014.2mb 41f 37f
4:04 7.5ft 8s 18 20 mph 1014.1mb 41f 37f
3:04 7ft 8s 16 18 mph 1014.5mb 41f 37f
2:04 7ft 6s 16 20 mph 1014.4mb 41f 38f
1:04 6ft 6s 16 18 mph 1014.7mb 41f 38f
12:04 6.5ft 6s 16 18 mph 1015mb 42f 38f
11:04 7ft 6s 16 20 mph 1015.5mb 42f 38f
10:04 7.5ft 6s 20 22 mph 1015.2mb 42f 38f
8:04 5.5ft 6s 22 27 mph 1015.5mb 42f 38f
7:04 7ft 6s 20 22 mph 1016mb 42f 38f
6:04 6.5ft 6s 22 25 mph 1015.8mb 42f 37f
5:04 6ft 6s 18 22 mph 1016.4mb 42f 38f
4:04 5.5ft 6s 20 25 mph 1016.7mb 42f 38f
3:04 6.5ft 6s 18 22 mph 1017.1mb 43f 38f
2:04 6.5ft 6s 18 20 mph 1017.3mb 43f 38f
1:04 5ft 6s 16 18 mph 1017.8mb 43f 39f
12:04 5ft 6s 16 18 mph 1018.2mb 43f 39f
vie 04/21 11:04 6ft 6s 11 16 mph 1018.9mb 43f 40f
10:04 5.5ft 6s 16 18 mph 1018.7mb 43f 40f
9:04 5ft 6s 18 25 mph 1018.2mb 43f 40f
8:04 6ft 6s 18 22 mph 1018.6mb 43f 40f
7:04 5.5ft 5s 20
mph
1018.6mb 43f 40f
6:04 6ft 5s 18 22 mph 1018.9mb 44f 40f
5:04 5ft 6s 20 25 mph 1019.1mb 44f 40f
4:04 4.5ft 5s 20 25 mph 1019.3mb 43f 40f
3:04 5ft 5s 18 20 mph 1020.5mb 43f 39f
2:04 4.5ft 5s 18 22 mph 1020.9mb 43f 39f
1:04 4.5ft 5s 18 20 mph 1021.4mb 43f 40f
12:04 4.5ft 5s 18 22 mph 1021.5mb 43f 40f
11:04 4.5ft 5s 18 22 mph 1021.7mb 43f 40f
10:04 4.5ft 5s 20 22 mph 1021.4mb 43f 40f
9:04 3.5ft 5s 20 22 mph 1021.3mb 43f 39f
8:04 5ft 11s 18 20 mph 1022mb 43f 40f
7:04 3.5ft 3s 18 20 mph 1022.2mb 43f 40f
6:04 3.5ft 5s 18 22 mph 1021.9mb 43f 40f
5:04 4.5ft 11s 18 20 mph 1021.6mb 43f 40f
4:04  -   -  16 18 mph 1021.9mb 43f 40f
3:04 4.5ft 8s 13 16 mph 1022.4mb 43f 40f
2:04 2.5ft 5s 13 16 mph 1022.5mb 43f 40f
1:04 5ft 11s 13 16 mph 1022.7mb 43f 40f
12:04 3.5ft 8s 11 16 mph 1022.6mb 43f 40f
jue 04/20 11:04 3.5ft 8s 13 16 mph 1022.2mb 43f 41f
10:04 4ft 11s 11 13 mph 1022.8mb 43f 41f
9:04 3.5ft 11s 11 13 mph 1022.4mb 44f 41f
8:04 3.5ft 5s 9 11 mph 1022.1mb 44f 41f
7:04 3.5ft 5s 11
mph
1021.8mb 44f 42f
6:04 4.5ft 6s 11 13 mph 1021.1mb 44f 42f
5:04 4ft 11s 9 11 mph 1021.4mb 44f 43f
4:04 4.5ft 5s 11
mph
1021.1mb 44f 42f
3:04 4.5ft 5s 7
mph
1021.3mb 44f 43f
2:04 3.5ft 6s 4 7 mph 1021.2mb 44f 44f
1:04 4ft 6s 2 4 mph 1021.1mb 43f 44f
12:04 5ft 6s 2
mph
1021.3mb 42f 43f
11:04 5ft 6s 4
mph
1021.1mb 42f 42f
10:04 4.5ft 6s 4
mph
1021.6mb 42f 42f
9:04 4.5ft 6s 7 9 mph 1021.3mb 42f 42f
8:04 5.5ft 6s 11 13 mph 1021.4mb 42f 42f
7:04 6ft 6s 16 18 mph 1020.9mb 42f 42f
6:04 6ft 6s 16 18 mph 1021mb 43f 42f